Time;durP1;ratioP1;P1;durP2;ratioP2;P2;SDS_P1;SDS_P2;PMS_P1;PMS_P2;Temp;Humidity;BMP_temperature;BMP_pressure;BME280_temperature;BME280_humidity;BME280_pressure;Samples;Min_cycle;Max_cycle;Signal;HPM_P1;HPM_P2
2020/12/22 00:01:42;;;;;;;46.67;34.33;;;;;;;9.80;75.17;101496.03;4976762;28;98432;-67
2020/12/22 00:04:08;;;;;;;46.55;31.65;;;;;;;9.87;74.96;101494.97;4976311;28;97200;-68
2020/12/22 00:06:35;;;;;;;44.83;32.45;;;;;;;9.75;75.63;101484.00;4975088;28;96970;-68
2020/12/22 00:09:01;;;;;;;55.97;36.70;;;;;;;9.80;75.05;101489.94;4976072;28;98445;-67
2020/12/22 00:11:27;;;;;;;51.10;33.78;;;;;;;9.85;75.06;101494.13;4976679;28;98587;-67
2020/12/22 00:13:53;;;;;;;52.22;36.17;;;;;;;9.86;74.87;101489.81;4975312;28;97108;-68
2020/12/22 00:16:20;;;;;;;54.55;35.40;;;;;;;9.78;74.87;101492.59;4971568;28;96687;-68
2020/12/22 00:18:46;;;;;;;46.28;33.35;;;;;;;9.76;75.41;101486.59;4973628;28;98572;-68
2020/12/22 00:21:18;;;;;;;46.72;33.05;;;;;;;9.66;75.61;101480.78;4972740;28;98806;-68
2020/12/22 00:23:44;;;;;;;44.63;32.42;;;;;;;9.68;76.08;101486.78;4972736;28;96535;-69
2020/12/22 00:26:14;;;;;;;46.90;32.40;;;;;;;9.82;75.27;101493.38;4970679;28;96502;-68
2020/12/22 00:28:40;;;;;;;47.47;33.80;;;;;;;9.95;74.44;101479.09;4954827;28;98440;-68
2020/12/22 00:31:06;;;;;;;46.95;32.70;;;;;;;9.86;74.51;101475.03;4973204;28;98556;-68
2020/12/22 00:33:33;;;;;;;61.40;34.05;;;;;;;10.00;74.18;101473.78;4972455;28;96582;-68
2020/12/22 00:35:59;;;;;;;46.42;34.90;;;;;;;10.00;73.96;101465.97;4972545;28;97066;-68
2020/12/22 00:38:25;;;;;;;47.50;32.50;;;;;;;10.02;74.24;101458.97;4954841;28;98567;-68
2020/12/22 00:40:52;;;;;;;51.50;34.72;;;;;;;9.80;75.12;101453.50;4973104;28;98847;-68
2020/12/22 00:43:18;;;;;;;49.72;33.60;;;;;;;9.77;75.27;101454.44;4972271;28;96847;-68
2020/12/22 00:45:45;;;;;;;49.10;34.20;;;;;;;9.86;75.16;101453.34;4972976;28;97270;-69
2020/12/22 00:48:26;;;;;;;49.60;32.20;;;;;;;9.80;75.57;101464.78;4972202;28;97524;-69
2020/12/22 00:50:52;;;;;;;43.53;32.80;;;;;;;9.79;75.47;101447.44;4972421;28;98595;-68
2020/12/22 00:53:19;;;;;;;48.35;33.60;;;;;;;9.78;75.39;101450.94;4972123;28;96854;-68
2020/12/22 00:55:46;;;;;;;48.55;31.02;;;;;;;9.81;75.42;101448.25;4954900;28;96711;-68
2020/12/22 00:58:13;;;;;;;41.65;31.33;;;;;;;9.84;75.06;101440.34;4955145;28;98758;-69
2020/12/22 01:00:40;;;;;;;43.47;33.42;;;;;;;9.80;75.67;101437.84;4946988;28;100268;-69
2020/12/22 01:03:07;;;;;;;43.10;32.13;;;;;;;9.84;75.63;101435.13;4961917;28;96829;-69
2020/12/22 01:05:33;;;;;;;44.28;31.70;;;;;;;9.92;75.24;101438.41;4960964;28;99376;-69
2020/12/22 01:07:59;;;;;;;44.33;30.58;;;;;;;9.92;75.12;101427.97;4944968;28;98623;-68
2020/12/22 01:10:25;;;;;;;41.15;30.90;;;;;;;9.85;75.16;101426.41;4960223;28;98668;-69
2020/12/22 01:12:53;;;;;;;35.97;25.25;;;;;;;9.89;74.77;101428.03;4963211;28;97499;-68
2020/12/22 01:15:20;;;;;;;38.58;28.30;;;;;;;9.88;75.22;101426.34;4961008;28;97337;-69
2020/12/22 01:17:47;;;;;;;33.22;27.90;;;;;;;9.84;75.44;101424.72;4952868;28;98423;-69
2020/12/22 01:20:14;;;;;;;33.60;27.77;;;;;;;9.90;75.46;101421.09;4960730;28;98606;-68
2020/12/22 01:22:42;;;;;;;33.60;25.55;;;;;;;9.94;74.69;101428.78;4956864;28;97121;-69
2020/12/22 01:25:08;;;;;;;33.28;24.02;;;;;;;10.00;74.41;101419.94;4960130;28;99627;-68
2020/12/22 01:27:35;;;;;;;34.50;24.20;;;;;;;10.02;74.52;101418.16;4961603;28;98577;-69
2020/12/22 01:30:01;;;;;;;28.13;21.17;;;;;;;10.03;74.37;101413.78;4959981;28;98546;-69
2020/12/22 01:32:28;;;;;;;28.58;21.88;;;;;;;10.12;73.55;101416.09;4965035;28;96619;-69
2020/12/22 01:34:54;;;;;;;28.52;21.77;;;;;;;10.18;73.11;101423.75;4959966;28;97311;-69
2020/12/22 01:37:20;;;;;;;29.02;22.50;;;;;;;10.07;73.92;101420.63;4961178;28;98495;-68
2020/12/22 01:39:46;;;;;;;34.53;24.85;;;;;;;9.99;74.19;101426.03;4958006;28;98657;-68
2020/12/22 01:42:14;;;;;;;29.63;22.60;;;;;;;9.97;74.72;101418.28;4960852;28;96966;-68
2020/12/22 01:44:41;;;;;;;29.67;23.17;;;;;;;9.93;74.92;101429.66;4959036;28;96729;-68
2020/12/22 01:47:07;;;;;;;33.20;22.88;;;;;;;9.94;74.87;101425.31;4958255;28;98675;-68
2020/12/22 01:49:34;;;;;;;30.95;20.80;;;;;;;9.94;75.02;101428.78;4939527;28;98567;-68
2020/12/22 01:52:01;;;;;;;32.25;23.00;;;;;;;9.89;74.95;101430.66;4947024;28;96888;-68
2020/12/22 01:54:27;;;;;;;34.35;23.77;;;;;;;9.74;75.31;101433.69;4944891;28;97814;-69
2020/12/22 01:56:54;;;;;;;32.78;24.27;;;;;;;9.54;76.56;101436.00;4957132;28;98510;-69
2020/12/22 01:59:20;;;;;;;34.58;24.98;;;;;;;9.69;75.35;101452.06;4964357;28;98590;-69
2020/12/22 02:01:50;;;;;;;34.55;24.85;;;;;;;9.79;75.19;101451.78;4958445;28;97162;-69
2020/12/22 02:04:16;;;;;;;37.55;28.40;;;;;;;9.72;75.16;101445.91;4958475;28;97320;-69
2020/12/22 02:06:43;;;;;;;38.45;26.85;;;;;;;9.73;75.19;101450.22;4944685;28;98470;-69
2020/12/22 02:09:10;;;;;;;40.80;28.05;;;;;;;9.81;74.91;101455.22;4955703;28;98558;-69
2020/12/22 02:11:38;;;;;;;45.47;29.80;;;;;;;9.76;75.27;101452.75;4957234;28;99815;-69
2020/12/22 02:14:07;;;;;;;48.17;34.33;;;;;;;9.73;75.29;101458.00;4961013;28;97271;-69
2020/12/22 02:16:33;;;;;;;44.78;32.03;;;;;;;9.70;75.67;101452.91;4961207;28;98597;-68
2020/12/22 02:19:09;;;;;;;40.17;30.23;;;;;;;9.67;75.87;101445.16;4931725;28;98679;-68
2020/12/22 02:21:35;;;;;;;44.67;31.52;;;;;;;9.71;75.51;101441.59;4955981;28;97834;-68
2020/12/22 02:24:02;;;;;;;40.80;27.13;;;;;;;9.79;75.67;101441.38;4958053;28;99663;-68
2020/12/22 02:26:28;;;;;;;42.70;29.23;;;;;;;9.80;75.22;101433.53;4959181;28;98594;-68
2020/12/22 02:28:55;;;;;;;43.75;29.15;;;;;;;9.78;75.89;101435.31;4946089;28;100849;-69
2020/12/22 02:31:23;;;;;;;40.80;29.48;;;;;;;9.82;75.51;101436.09;4960063;28;96724;-69
2020/12/22 02:33:49;;;;;;;38.38;28.50;;;;;;;9.78;75.54;101443.13;4959755;28;96775;-68
2020/12/22 02:36:16;;;;;;;40.92;26.35;;;;;;;9.85;75.35;101435.97;4960615;28;98732;-69
2020/12/22 02:38:43;;;;;;;40.58;28.75;;;;;;;9.87;75.36;101440.28;4955820;28;99010;-68
2020/12/22 02:41:09;;;;;;;41.63;30.17;;;;;;;9.87;75.11;101439.41;4957175;28;97487;-69
2020/12/22 02:43:35;;;;;;;39.67;27.35;;;;;;;9.83;75.68;101438.63;4957753;28;97511;-70
2020/12/22 02:46:02;;;;;;;34.20;26.10;;;;;;;9.83;75.46;101436.03;4955316;28;99007;-69
2020/12/22 02:48:29;;;;;;;41.15;27.35;;;;;;;9.83;75.98;101440.41;4954641;28;98522;-69
2020/12/22 02:50:55;;;;;;;32.25;24.27;;;;;;;9.90;75.14;101429.75;4956983;28;97274;-69
2020/12/22 02:53:22;;;;;;;36.90;26.38;;;;;;;9.89;75.43;101432.41;4943569;28;97536;-69
2020/12/22 02:55:48;;;;;;;37.40;25.67;;;;;;;9.85;75.88;101431.63;4957760;28;98579;-69
2020/12/22 02:58:14;;;;;;;35.95;24.80;;;;;;;9.96;75.04;101434.81;4958144;28;98790;-69
2020/12/22 03:00:41;;;;;;;33.13;24.65;;;;;;;9.95;75.05;101421.81;4960202;28;96877;-69
2020/12/22 03:03:08;;;;;;;29.48;23.13;;;;;;;9.93;75.08;101419.25;4957474;28;98912;-70
2020/12/22 03:05:34;;;;;;;28.88;22.65;;;;;;;9.97;74.87;101415.66;4957805;28;98745;-69
2020/12/22 03:08:01;;;;;;;33.03;22.63;;;;;;;9.94;75.30;101413.16;4955106;28;98448;-69
2020/12/22 03:10:27;;;;;;;30.20;22.20;;;;;;;9.94;75.11;101414.91;4956941;28;96863;-69
2020/12/22 03:12:53;;;;;;;27.55;22.13;;;;;;;10.02;74.78;101418.16;4957231;28;98106;-69
2020/12/22 03:15:20;;;;;;;32.30;22.52;;;;;;;9.92;75.33;101412.34;4957731;28;98643;-68
2020/12/22 03:17:46;;;;;;;30.17;23.80;;;;;;;9.81;75.90;101408.34;4959461;28;98478;-69
2020/12/22 03:20:13;;;;;;;27.30;21.23;;;;;;;9.87;75.80;101415.97;4962737;28;97235;-68
2020/12/22 03:22:41;;;;;;;33.60;25.67;;;;;;;9.87;75.69;101409.00;4957543;28;96954;-68
2020/12/22 03:25:09;;;;;;;32.85;23.70;;;;;;;9.89;74.97;101407.22;4964737;28;98527;-69
2020/12/22 03:27:35;;;;;;;31.70;23.05;;;;;;;9.88;75.12;101399.44;4960112;28;101202;-68
2020/12/22 03:30:04;;;;;;;28.75;21.60;;;;;;;9.85;75.32;101405.59;4960767;28;97915;-69
2020/12/22 03:32:30;;;;;;;31.08;21.75;;;;;;;9.79;75.90;101404.91;4956017;28;97631;-68
2020/12/22 03:34:56;;;;;;;27.73;20.83;;;;;;;9.85;75.49;101415.16;4958464;28;99513;-68
2020/12/22 03:37:23;;;;;;;27.92;21.75;;;;;;;9.93;74.70;101414.03;4954475;28;98438;-69
2020/12/22 03:39:50;;;;;;;25.63;21.45;;;;;;;9.91;74.60;101409.78;4959597;28;97271;-69
2020/12/22 03:42:17;;;;;;;25.85;20.38;;;;;;;9.86;75.19;101414.28;4962649;28;98989;-68
2020/12/22 03:44:44;;;;;;;28.65;20.25;;;;;;;9.77;75.87;101402.34;4936383;28;100172;-69
2020/12/22 03:47:10;;;;;;;27.73;20.67;;;;;;;9.75;75.89;101401.56;4962470;28;98522;-69
2020/12/22 03:49:37;;;;;;;28.15;22.13;;;;;;;9.88;75.18;101405.50;4960750;28;96745;-69
2020/12/22 03:52:03;;;;;;;26.80;21.98;;;;;;;9.94;74.81;101400.13;4945060;28;97358;-69
2020/12/22 03:54:30;;;;;;;28.75;22.80;;;;;;;9.86;75.29;101401.25;4963641;28;98712;-69
2020/12/22 03:56:57;;;;;;;30.17;23.05;;;;;;;9.83;75.74;101401.34;4963404;28;99682;-68
2020/12/22 03:59:23;;;;;;;31.42;23.40;;;;;;;9.86;75.50;101409.06;4959527;28;97272;-69
2020/12/22 04:01:50;;;;;;;30.20;22.20;;;;;;;9.77;76.03;101406.72;4960247;28;98904;-68
2020/12/22 04:04:20;;;;;;;29.98;21.17;;;;;;;9.72;76.22;101399.03;4959507;28;98612;-68
2020/12/22 04:06:46;;;;;;;25.20;20.67;;;;;;;9.84;75.73;101405.63;4963425;28;98569;-69
2020/12/22 04:09:13;;;;;;;28.80;21.17;;;;;;;9.87;75.38;101400.34;4959071;28;96694;-69
2020/12/22 04:11:40;;;;;;;29.63;22.17;;;;;;;9.88;75.20;101409.88;4962349;28;97211;-69
2020/12/22 04:14:07;;;;;;;28.48;20.42;;;;;;;9.86;75.32;101406.47;4962626;28;100514;-69
2020/12/22 04:16:34;;;;;;;26.80;20.88;;;;;;;9.77;75.42;101401.50;4963151;28;99739;-69
2020/12/22 04:19:00;;;;;;;29.50;20.60;;;;;;;9.67;76.58;101421.72;4960768;28;98906;-69
2020/12/22 04:21:27;;;;;;;31.67;21.75;;;;;;;9.77;75.52;101412.78;4960966;28;96778;-69
2020/12/22 04:23:54;;;;;;;29.17;21.70;;;;;;;9.66;75.73;101415.69;4958210;28;98485;-69
2020/12/22 04:26:21;;;;;;;26.83;21.00;;;;;;;9.58;76.64;101414.16;4961441;28;100496;-69
2020/12/22 04:28:47;;;;;;;30.48;21.20;;;;;;;9.66;75.78;101407.00;4959928;28;97118;-68
2020/12/22 04:31:14;;;;;;;27.15;20.65;;;;;;;9.70;75.85;101403.44;4958853;28;99513;-69
2020/12/22 04:33:40;;;;;;;27.73;22.00;;;;;;;9.59;76.51;101402.88;4961015;28;98644;-69
2020/12/22 04:36:06;;;;;;;26.33;19.95;;;;;;;9.64;76.17;101400.97;4961234;28;98592;-69
2020/12/22 04:38:33;;;;;;;27.40;21.38;;;;;;;9.79;75.31;101405.75;4958534;28;97517;-70
2020/12/22 04:41:03;;;;;;;23.73;20.35;;;;;;;9.77;75.59;101399.75;4946571;28;98344;-69
2020/12/22 04:43:31;;;;;;;26.85;22.38;;;;;;;9.74;75.74;101399.81;4962078;28;98905;-69
2020/12/22 04:46:03;;;;;;;28.83;22.42;;;;;;;9.68;76.10;101398.25;4964754;28;98535;-69
2020/12/22 04:48:36;;;;;;;27.90;22.45;;;;;;;9.59;76.43;101392.47;4954126;28;96760;-69
2020/12/22 04:51:11;;;;;;;27.73;21.17;;;;;;;9.68;75.74;101398.25;4973225;28;96604;-69
2020/12/22 04:53:58;;;;;;;;;;;;;;;9.73;75.72;101395.53;4972171;28;98681;-69
2020/12/22 04:56:24;;;;;;;25.35;21.58;;;;;;;9.74;75.59;101397.22;4972725;28;96558;-69
2020/12/22 04:58:50;;;;;;;29.05;21.83;;;;;;;9.82;75.18;101404.84;4954787;28;96615;-69
2020/12/22 05:01:17;;;;;;;28.50;20.25;;;;;;;9.66;75.72;101400.06;4972077;28;96693;-69
2020/12/22 05:03:43;;;;;;;25.85;20.00;;;;;;;9.58;76.35;101403.75;4950650;28;98456;-69
2020/12/22 05:06:09;;;;;;;25.77;20.42;;;;;;;9.56;76.53;101398.59;4972774;28;98566;-70
2020/12/22 05:08:36;;;;;;;27.10;20.75;;;;;;;9.68;75.64;101406.06;4971346;28;96721;-69
2020/12/22 05:11:02;;;;;;;25.48;21.50;;;;;;;9.66;76.16;101399.22;4972731;28;97593;-70
2020/12/22 05:13:29;;;;;;;28.27;21.20;;;;;;;9.61;76.48;101386.31;4954215;28;99290;-69
2020/12/22 05:15:56;;;;;;;26.85;20.40;;;;;;;9.65;75.95;101394.91;4972119;28;98607;-70
2020/12/22 05:18:23;;;;;;;25.98;19.00;;;;;;;9.54;76.70;101390.00;4971576;28;96653;-70
2020/12/22 05:20:50;;;;;;;24.42;20.73;;;;;;;9.61;76.06;101398.47;4972770;28;97080;-69
2020/12/22 05:23:20;;;;;;;25.05;20.73;;;;;;;9.55;75.90;101393.44;4971438;28;98509;-70
2020/12/22 05:25:47;;;;;;;24.80;19.23;;;;;;;9.58;76.45;101401.16;4971813;28;97530;-70
2020/12/22 05:28:15;;;;;;;27.15;22.35;;;;;;;9.47;76.66;101398.00;4971753;28;97174;-69
2020/12/22 05:30:46;;;;;;;27.33;20.13;;;;;;;9.54;76.50;101405.59;4971300;28;96645;-69
2020/12/22 05:33:13;;;;;;;29.85;20.58;;;;;;;9.69;75.20;101397.38;4959831;28;98612;-69
2020/12/22 05:35:44;;;;;;;22.90;19.02;;;;;;;9.75;74.64;101400.69;4961584;28;98583;-69
2020/12/22 05:38:11;;;;;;;24.38;19.35;;;;;;;9.70;74.90;101403.44;4960561;28;99015;-69
2020/12/22 05:40:41;;;;;;;35.92;21.20;;;;;;;9.73;74.50;101398.13;4960508;28;97451;-70
2020/12/22 05:43:08;;;;;;;26.50;20.13;;;;;;;9.71;74.57;101402.53;4959660;28;99462;-70
2020/12/22 05:45:35;;;;;;;29.88;19.60;;;;;;;9.75;74.25;101401.56;4961317;28;98609;-70
2020/12/22 05:48:01;;;;;;;26.13;18.83;;;;;;;9.63;75.14;101399.28;4961323;28;98097;-70
2020/12/22 05:50:27;;;;;;;21.65;17.88;;;;;;;9.55;75.37;101401.25;4962318;28;97001;-69
2020/12/22 05:52:55;;;;;;;31.05;21.40;;;;;;;9.64;75.12;101411.38;4957037;28;99662;-70
2020/12/22 05:55:40;;;;;;;26.55;19.95;;;;;;;9.71;74.44;101415.56;4958037;28;98555;-70
2020/12/22 05:58:15;;;;;;;26.85;19.95;;;;;;;9.59;75.39;101408.09;4954517;28;97296;-71
2020/12/22 06:00:42;;;;;;;23.08;19.67;;;;;;;9.62;74.92;101408.00;4962125;28;97316;-71
2020/12/22 06:03:10;;;;;;;22.33;18.90;;;;;;;9.59;74.92;101414.16;4960153;28;98480;-72
2020/12/22 06:05:38;;;;;;;29.55;19.17;;;;;;;9.71;74.47;101421.63;4963288;28;98494;-71
2020/12/22 06:08:06;;;;;;;27.75;20.67;;;;;;;9.66;74.20;101418.28;4963144;28;97013;-67
2020/12/22 06:10:33;;;;;;;22.95;18.70;;;;;;;9.51;75.23;101420.44;4958485;28;96850;-72
2020/12/22 06:13:00;;;;;;;21.45;19.15;;;;;;;9.56;74.57;101410.75;4960267;28;98439;-72
2020/12/22 06:15:26;;;;;;;25.05;18.65;;;;;;;9.62;74.07;101408.00;4935161;28;98675;-72
2020/12/22 06:17:53;;;;;;;22.17;18.90;;;;;;;9.53;74.63;101406.47;4959999;28;96774;-69
2020/12/22 06:20:23;;;;;;;25.40;20.58;;;;;;;9.41;75.29;101401.63;4961421;28;97103;-70
2020/12/22 06:22:49;;;;;;;23.00;20.30;;;;;;;9.45;75.11;101406.69;4962765;28;98593;-71
2020/12/22 06:25:20;;;;;;;25.50;19.73;;;;;;;9.47;74.73;101406.66;4961431;28;98456;-71
2020/12/22 06:27:47;;;;;;;23.05;19.13;;;;;;;9.39;75.51;101406.88;4962540;28;97424;-70
2020/12/22 06:30:16;;;;;;;34.20;21.45;;;;;;;9.46;74.94;101412.75;4968199;28;96981;-67
2020/12/22 06:32:44;;;;;;;30.48;21.38;;;;;;;9.47;74.60;101401.44;4959584;28;98699;-70
2020/12/22 06:35:29;;;;;;;24.65;19.98;;;;;;;9.26;75.90;101402.00;4957406;28;98490;-71
2020/12/22 06:37:56;;;;;;;23.63;19.30;;;;;;;9.36;75.30;101411.28;4957261;28;100438;-70
2020/12/22 06:40:54;;;;;;;23.38;18.00;;;;;;;9.41;75.07;101423.28;4963315;28;99651;-70
2020/12/22 06:43:43;;;;;;;25.08;20.50;;;;;;;9.30;75.28;101421.88;4948702;28;98494;-74
2020/12/22 06:46:10;;;;;;;23.10;19.17;;;;;;;9.19;75.75;101422.13;4968776;28;98646;-75
2020/12/22 06:48:44;;;;;;;25.45;19.10;;;;;;;9.34;74.95;101421.75;4970600;28;97045;-75
2020/12/22 06:51:23;;;;;;;23.42;18.58;;;;;;;9.27;75.72;101420.22;4963241;28;96948;-76
2020/12/22 06:53:49;;;;;;;24.52;19.05;;;;;;;9.45;74.96;101427.53;4963564;28;98731;-77
2020/12/22 06:56:44;;;;;;;28.65;20.02;;;;;;;9.35;75.23;101430.41;4965649;28;98686;-77
2020/12/22 06:59:12;;;;;;;25.25;21.75;;;;;;;9.42;74.99;101431.94;4962637;28;97376;-75
2020/12/22 07:01:44;;;;;;;32.70;19.67;;;;;;;9.32;76.04;101435.69;4964987;28;97120;-75
2020/12/22 07:04:18;;;;;;;26.33;20.52;;;;;;;9.19;76.89;101429.94;4968256;28;98761;-76
2020/12/22 07:07:02;;;;;;;29.70;19.40;;;;;;;9.27;76.49;101435.81;4969000;28;98668;-75
2020/12/22 07:09:30;;;;;;;31.20;20.52;;;;;;;9.24;76.34;101435.88;4968383;28;96655;-77
2020/12/22 07:12:08;;;;;;;28.58;20.85;;;;;;;9.18;77.04;101433.44;4970349;28;96673;-76
2020/12/22 07:14:46;;;;;;;25.38;20.33;;;;;;;9.21;76.91;101435.94;4964799;28;98587;-67
2020/12/22 07:17:13;;;;;;;27.63;19.58;;;;;;;9.10;77.04;101444.03;4966985;28;98606;-70
2020/12/22 07:19:44;;;;;;;26.85;20.35;;;;;;;9.34;75.99;101445.16;4966501;28;97033;-73
2020/12/22 07:22:11;;;;;;;30.05;21.95;;;;;;;9.34;76.03;101449.53;4950672;28;96762;-73
2020/12/22 07:24:37;;;;;;;27.65;20.67;;;;;;;9.36;76.36;101452.94;4969896;28;98509;-71
2020/12/22 07:27:04;;;;;;;25.40;20.27;;;;;;;9.21;76.63;101461.13;4973315;28;99085;-75
2020/12/22 07:29:30;;;;;;;29.67;20.95;;;;;;;9.20;76.77;101468.06;4972526;28;96971;-75
2020/12/22 07:31:57;;;;;;;29.23;22.30;;;;;;;9.34;76.48;101465.13;4973965;28;96635;-71
2020/12/22 07:34:23;;;;;;;27.00;22.58;;;;;;;9.45;76.15;101466.56;4946369;28;98436;-71
2020/12/22 07:36:51;;;;;;;31.40;21.02;;;;;;;9.60;75.89;101467.06;4973219;28;97438;-72
2020/12/22 07:39:23;;;;;;;34.33;20.80;;;;;;;9.52;75.99;101463.78;4973671;28;96669;-73
2020/12/22 07:41:51;;;;;;;28.35;22.27;;;;;;;9.54;76.29;101469.84;4973138;28;96619;-74
2020/12/22 07:44:21;;;;;;;23.40;19.70;;;;;;;9.68;75.81;101475.50;4972733;28;98591;-74
2020/12/22 07:46:48;;;;;;;27.73;20.40;;;;;;;9.80;75.28;101472.59;4971573;28;98434;-74
2020/12/22 07:49:15;;;;;;;27.90;18.88;;;;;;;9.93;74.85;101471.34;4973461;28;96646;-74
2020/12/22 07:51:44;;;;;;;22.73;18.63;;;;;;;9.98;74.54;101468.63;4972967;28;96705;-75
2020/12/22 07:54:11;;;;;;;26.35;19.67;;;;;;;10.02;74.56;101470.25;4972624;28;98561;-73
2020/12/22 07:56:39;;;;;;;26.75;19.35;;;;;;;10.03;74.85;101476.31;4972679;28;98740;-74
2020/12/22 07:59:12;;;;;;;24.17;19.23;;;;;;;10.03;74.60;101477.16;4973238;28;96652;-74
2020/12/22 08:01:45;;;;;;;23.52;18.83;;;;;;;10.02;74.75;101478.06;4973623;28;97045;-74
2020/12/22 08:04:15;;;;;;;27.90;21.07;;;;;;;10.10;75.02;101477.84;4967018;28;98630;-74
2020/12/22 08:06:52;;;;;;;28.55;20.02;;;;;;;10.09;74.61;101471.78;4975352;28;98721;-74
2020/12/22 08:09:35;;;;;;;28.92;20.17;;;;;;;10.14;74.46;101475.09;4972757;28;96673;-74
2020/12/22 08:12:06;;;;;;;26.02;18.92;;;;;;;10.20;74.49;101476.69;4973904;28;97097;-74
2020/12/22 08:14:37;;;;;;;25.75;20.02;;;;;;;10.23;74.20;101474.88;4969704;28;98555;-74
2020/12/22 08:17:07;;;;;;;26.85;21.23;;;;;;;10.28;74.29;101482.56;4950212;28;98526;-75
2020/12/22 08:19:36;;;;;;;29.23;20.63;;;;;;;10.33;74.61;101487.63;4961834;28;96671;-72
2020/12/22 08:22:04;;;;;;;28.80;21.20;;;;;;;10.47;74.18;101482.88;4922675;28;97705;-75
2020/12/22 08:24:33;;;;;;;29.85;22.35;;;;;;;10.63;73.63;101483.25;4955675;28;98913;-73
2020/12/22 08:27:00;;;;;;;27.65;21.73;;;;;;;10.69;73.46;101493.50;4944491;28;98652;-74
2020/12/22 08:29:27;;;;;;;27.45;21.33;;;;;;;10.66;73.51;101497.06;4958438;28;98103;-74
2020/12/22 08:32:02;;;;;;;27.60;19.90;;;;;;;10.68;73.24;101487.44;4957992;28;96666;-73
2020/12/22 08:34:30;;;;;;;27.55;21.33;;;;;;;10.65;73.70;101481.44;4958822;28;98572;-73
2020/12/22 08:37:10;;;;;;;24.60;18.83;;;;;;;10.61;73.83;101482.47;4958662;28;98520;-73
2020/12/22 08:39:40;;;;;;;27.80;19.08;;;;;;;10.63;73.71;101480.66;4965048;28;97910;-74
2020/12/22 08:42:07;;;;;;;25.13;19.05;;;;;;;10.68;73.74;101476.16;4968251;28;96933;-73
2020/12/22 08:44:34;;;;;;;26.60;20.10;;;;;;;10.66;73.77;101488.38;4969802;28;98551;-74
2020/12/22 08:47:11;;;;;;;26.02;18.33;;;;;;;10.61;73.97;101490.28;4964253;28;98495;-74
2020/12/22 08:49:37;;;;;;;23.23;19.58;;;;;;;10.70;73.91;101487.38;4966352;28;97837;-75
2020/12/22 08:52:10;;;;;;;25.90;19.90;;;;;;;10.73;73.45;101495.13;4968832;28;96951;-74
2020/12/22 08:54:36;;;;;;;37.15;20.45;;;;;;;10.78;73.39;101488.00;4969612;28;98661;-75
2020/12/22 08:57:10;;;;;;;23.50;18.75;;;;;;;10.81;73.32;101487.03;4965609;28;98538;-74
2020/12/22 08:59:36;;;;;;;24.48;20.13;;;;;;;10.86;73.34;101499.03;4963715;28;96824;-75
2020/12/22 09:02:03;;;;;;;28.92;22.02;;;;;;;10.88;73.00;101499.88;4972872;28;97883;-75
2020/12/22 09:04:31;;;;;;;27.17;20.33;;;;;;;10.88;73.28;101504.22;4960657;28;98727;-71
2020/12/22 09:06:58;;;;;;;27.55;22.10;;;;;;;10.95;73.27;101495.28;4967333;28;98654;-71
2020/12/22 09:09:27;;;;;;;29.05;21.67;;;;;;;11.00;72.76;101494.25;4969795;28;96694;-71
2020/12/22 09:12:10;;;;;;;24.77;19.08;;;;;;;11.05;72.88;101485.44;4971469;28;96652;-70
2020/12/22 09:14:46;;;;;;;23.67;20.52;;;;;;;11.09;72.58;101484.44;4962587;28;98479;-72
2020/12/22 09:17:24;;;;;;;26.88;21.35;;;;;;;11.12;72.35;101492.16;4965160;28;98472;-71
2020/12/22 09:19:50;;;;;;;27.35;18.63;;;;;;;11.13;72.46;101499.94;4944356;28;99599;-71
2020/12/22 09:22:23;;;;;;;33.33;21.70;;;;;;;11.20;72.03;101500.59;4960867;28;97353;-74
2020/12/22 09:24:53;;;;;;;28.92;20.35;;;;;;;11.18;72.43;101486.72;4953993;28;97549;-71
2020/12/22 09:27:39;;;;;;;27.35;19.10;;;;;;;11.21;72.62;101487.47;4961725;28;98722;-72
2020/12/22 09:30:07;;;;;;;23.05;20.13;;;;;;;11.24;71.73;101487.41;4958444;28;99210;-72
2020/12/22 09:32:43;;;;;;;26.50;19.25;;;;;;;11.33;70.86;101485.38;4958410;28;99472;-73
2020/12/22 09:35:10;;;;;;;26.77;20.23;;;;;;;11.33;70.56;101482.75;4965246;28;98707;-72
2020/12/22 09:37:36;;;;;;;24.30;20.23;;;;;;;11.37;70.30;101487.84;4970290;28;98450;-74
2020/12/22 09:40:03;;;;;;;22.88;19.85;;;;;;;11.40;70.09;101492.09;4965249;28;96691;-73
2020/12/22 09:42:30;;;;;;;29.33;21.10;;;;;;;11.37;70.60;101487.84;4961656;28;98195;-74
2020/12/22 09:44:56;;;;;;;30.45;20.45;;;;;;;11.47;70.72;101491.84;4948884;28;98638;-73
2020/12/22 09:47:22;;;;;;;25.80;21.75;;;;;;;11.30;70.24;101496.78;4958369;28;99393;-73
2020/12/22 09:49:49;;;;;;;25.05;20.85;;;;;;;11.39;70.61;101493.84;4956024;28;99347;-73
2020/12/22 09:52:15;;;;;;;24.33;19.85;;;;;;;11.35;70.31;101473.13;4961058;28;97295;-73
2020/12/22 09:54:41;;;;;;;24.95;21.05;;;;;;;11.49;69.72;101470.88;4957643;28;100689;-73
2020/12/22 09:57:08;;;;;;;27.75;20.15;;;;;;;11.54;69.66;101468.97;4961719;28;98413;-70
2020/12/22 09:59:35;;;;;;;26.40;21.38;;;;;;;11.54;69.75;101475.03;4961391;28;98119;-72
2020/12/22 10:02:01;;;;;;;27.65;19.60;;;;;;;11.65;69.24;101476.44;4960810;28;96822;-72
2020/12/22 10:04:28;;;;;;;24.40;21.17;;;;;;;11.68;68.97;101476.34;4967677;28;98643;-72
2020/12/22 10:06:54;;;;;;;25.10;22.25;;;;;;;11.62;69.31;101473.94;4960162;28;99826;-73
2020/12/22 10:09:20;;;;;;;25.77;21.90;;;;;;;11.65;69.32;101471.22;4927752;28;98095;-72
2020/12/22 10:11:47;;;;;;;32.15;25.73;;;;;;;11.61;69.32;101464.38;4957375;28;96829;-72
2020/12/22 10:14:13;;;;;;;31.65;25.38;;;;;;;11.71;69.34;101460.53;4964026;28;98663;-72
2020/12/22 10:16:40;;;;;;;28.85;24.00;;;;;;;11.75;68.65;101457.78;4962033;28;98574;-72
2020/12/22 10:19:06;;;;;;;28.30;24.70;;;;;;;11.70;68.60;101459.69;4944148;28;97388;-72
2020/12/22 10:21:32;;;;;;;25.60;22.92;;;;;;;11.79;67.82;101450.69;4958209;28;101741;-73
2020/12/22 10:23:59;;;;;;;27.30;24.50;;;;;;;11.87;68.03;101453.91;4956439;28;98555;-73
2020/12/22 10:26:27;;;;;;;27.77;24.88;;;;;;;11.82;67.61;101463.66;4958080;28;98587;-74
2020/12/22 10:28:54;;;;;;;30.17;25.80;;;;;;;11.86;67.14;101453.97;4964217;28;97336;-73
2020/12/22 10:31:21;;;;;;;25.63;22.65;;;;;;;11.89;67.20;101453.88;4958768;28;96867;-72
2020/12/22 10:33:47;;;;;;;26.50;23.55;;;;;;;11.91;67.38;101450.28;4960051;28;98528;-72
2020/12/22 10:36:14;;;;;;;25.45;22.75;;;;;;;11.94;66.91;101447.56;4950042;28;98665;-74
2020/12/22 10:38:52;;;;;;;24.25;21.75;;;;;;;11.99;66.68;101460.47;4942789;28;100618;-72
2020/12/22 10:41:19;;;;;;;24.77;22.13;;;;;;;12.01;65.91;101443.81;4953821;28;96860;-74
2020/12/22 10:43:49;;;;;;;23.48;20.50;;;;;;;12.05;65.93;101455.00;4963933;28;98637;-74
2020/12/22 10:46:15;;;;;;;22.98;20.52;;;;;;;11.98;65.81;101450.91;4937266;28;98613;-71
2020/12/22 10:48:45;;;;;;;23.10;20.67;;;;;;;11.96;66.24;101445.72;4961017;28;98680;-73
2020/12/22 10:51:12;;;;;;;25.55;22.00;;;;;;;11.85;65.95;101444.44;4960141;28;96988;-71
2020/12/22 10:53:42;;;;;;;25.80;21.60;;;;;;;11.90;66.36;101448.56;4961480;28;98745;-71
2020/12/22 10:56:16;;;;;;;25.27;22.67;;;;;;;11.76;66.17;101449.03;4959327;28;99202;-70
2020/12/22 10:58:43;;;;;;;23.98;21.38;;;;;;;11.80;66.72;101445.41;4939622;28;99790;-70
2020/12/22 11:01:13;;;;;;;26.48;23.67;;;;;;;11.84;66.95;101440.97;4963118;28;96790;-70
2020/12/22 11:03:41;;;;;;;26.23;23.52;;;;;;;11.94;66.75;101441.47;4960888;28;98424;-70
2020/12/22 11:08:53;;;;;;;26.27;23.48;;;;;;;12.03;65.88;101441.97;4965800;28;96628;-72
2020/12/22 11:11:19;;;;;;;27.23;23.23;;;;;;;12.04;66.00;101433.25;4955717;28;99153;-74
2020/12/22 11:13:46;;;;;;;26.27;23.60;;;;;;;12.10;65.80;101428.72;4956534;28;98671;-69
2020/12/22 11:16:12;;;;;;;24.13;21.52;;;;;;;11.98;66.02;101428.22;4958149;28;99176;-72
2020/12/22 11:18:39;;;;;;;26.48;23.70;;;;;;;11.91;65.82;101437.22;4958812;28;97962;-72
2020/12/22 11:21:12;;;;;;;24.38;21.80;;;;;;;12.07;66.01;101422.66;4954700;28;96807;-71
2020/12/22 11:23:44;;;;;;;23.23;20.83;;;;;;;12.13;66.18;101420.72;4958732;28;98671;-74